createdAt,value
2022-08-23T00:02:25.564Z,20.26
2022-08-23T00:05:08.305Z,20.29
2022-08-23T00:07:42.054Z,20.47
2022-08-23T00:10:10.440Z,20.50
2022-08-23T00:12:37.736Z,20.51
2022-08-23T00:15:04.963Z,20.34
2022-08-23T00:17:34.541Z,20.32
2022-08-23T00:20:07.524Z,20.33
2022-08-23T00:22:34.289Z,20.29
2022-08-23T00:25:00.911Z,20.42
2022-08-23T00:27:27.654Z,20.23
2022-08-23T00:29:55.691Z,20.32
2022-08-23T00:32:29.626Z,20.28
2022-08-23T00:34:56.985Z,20.18
2022-08-23T00:37:24.050Z,20.15
2022-08-23T00:39:51.283Z,20.05
2022-08-23T00:42:53.593Z,19.96
2022-08-23T00:45:45.644Z,19.83
2022-08-23T00:48:13.269Z,19.96
2022-08-23T00:50:42.735Z,19.92
2022-08-23T00:53:24.009Z,19.90
2022-08-23T00:55:54.554Z,19.87
2022-08-23T00:58:21.885Z,19.88
2022-08-23T01:00:50.168Z,19.85
2022-08-23T01:03:18.645Z,19.77
2022-08-23T01:05:55.771Z,19.59
2022-08-23T01:08:25.558Z,19.69
2022-08-23T01:10:57.107Z,19.67
2022-08-23T01:13:30.158Z,19.65
2022-08-23T01:16:01.100Z,19.52
2022-08-23T01:18:30.470Z,19.49
2022-08-23T01:21:10.564Z,19.42
2022-08-23T01:23:53.526Z,19.34
2022-08-23T01:26:22.223Z,19.34
2022-08-23T01:28:49.941Z,19.35
2022-08-23T01:31:18.546Z,19.23
2022-08-23T01:33:49.981Z,19.20
2022-08-23T01:36:17.385Z,19.00
2022-08-23T01:38:43.910Z,19.03
2022-08-23T01:41:10.377Z,19.04
2022-08-23T01:43:37.880Z,19.06
2022-08-23T01:46:11.169Z,19.01
2022-08-23T01:48:37.649Z,19.01
2022-08-23T01:51:04.956Z,18.97
2022-08-23T01:53:32.048Z,19.01
2022-08-23T01:56:01.712Z,18.92
2022-08-23T01:58:32.549Z,18.92
2022-08-23T02:00:59.380Z,18.85
2022-08-23T02:03:26.098Z,18.81
2022-08-23T02:08:42.737Z,18.68
2022-08-23T02:11:15.194Z,18.69
2022-08-23T02:13:43.371Z,18.72
2022-08-23T02:16:10.792Z,18.70
2022-08-23T02:18:41.690Z,18.53
2022-08-23T02:21:09.678Z,18.55
2022-08-23T02:23:36.165Z,18.56
2022-08-23T02:26:02.657Z,18.73
2022-08-23T02:28:29.111Z,18.76
2022-08-23T02:30:55.572Z,18.71
2022-08-23T02:33:22.267Z,18.62
2022-08-23T02:35:49.645Z,18.79
2022-08-23T02:38:17.217Z,18.66
2022-08-23T02:40:44.105Z,18.64
2022-08-23T02:43:11.382Z,18.61
2022-08-23T02:45:38.577Z,18.60
2022-08-23T02:48:05.400Z,18.52
2022-08-23T02:50:32.579Z,18.54
2022-08-23T02:52:59.324Z,18.58
2022-08-23T02:55:26.616Z,18.57
2022-08-23T02:57:53.546Z,18.46
2022-08-23T03:00:20.420Z,18.48
2022-08-23T03:02:47.410Z,18.37
2022-08-23T03:05:15.241Z,18.33
2022-08-23T03:07:42.402Z,18.36
2022-08-23T03:10:10.460Z,18.33
2022-08-23T03:12:37.935Z,18.30
2022-08-23T03:15:05.711Z,18.40
2022-08-23T03:17:32.447Z,18.30
2022-08-23T03:19:58.995Z,18.17
2022-08-23T03:22:25.545Z,18.42
2022-08-23T03:24:52.482Z,18.57
2022-08-23T03:27:18.940Z,18.44
2022-08-23T03:29:45.408Z,18.32
2022-08-23T03:32:11.926Z,18.42
2022-08-23T03:34:42.058Z,18.33
2022-08-23T03:37:08.592Z,18.27
2022-08-23T03:39:35.112Z,18.32
2022-08-23T03:42:01.629Z,18.26
2022-08-23T03:44:28.227Z,18.08
2022-08-23T03:46:54.776Z,17.90
2022-08-23T03:49:21.292Z,17.95
2022-08-23T03:51:47.777Z,17.97
2022-08-23T03:54:14.317Z,18.03
2022-08-23T03:56:55.529Z,17.92
2022-08-23T03:59:22.410Z,17.95
2022-08-23T04:01:49.438Z,18.04
2022-08-23T04:04:16.183Z,18.25
2022-08-23T04:06:45.084Z,18.25
2022-08-23T04:09:13.393Z,18.20
2022-08-23T04:11:40.027Z,18.11
2022-08-23T04:14:06.740Z,18.09
2022-08-23T04:16:37.496Z,18.21
2022-08-23T04:19:04.991Z,18.14
2022-08-23T04:21:32.195Z,18.23
2022-08-23T04:23:58.678Z,18.02
2022-08-23T04:26:29.691Z,18.08
2022-08-23T04:28:56.998Z,18.15
2022-08-23T04:31:26.168Z,18.14
2022-08-23T04:33:54.369Z,18.20
2022-08-23T04:36:23.426Z,18.23
2022-08-23T04:38:50.163Z,18.32
2022-08-23T04:41:36.342Z,18.50
2022-08-23T04:44:03.508Z,18.14
2022-08-23T04:46:29.977Z,17.91
2022-08-23T04:48:56.577Z,17.84
2022-08-23T04:51:23.096Z,17.78
2022-08-23T04:53:49.586Z,17.69
2022-08-23T04:56:16.098Z,17.70
2022-08-23T04:58:42.557Z,17.79
2022-08-23T05:01:10.923Z,17.76
2022-08-23T05:03:38.454Z,17.84
2022-08-23T05:06:05.260Z,17.58
2022-08-23T05:08:32.380Z,17.79
2022-08-23T05:11:04.665Z,17.84
2022-08-23T05:13:32.725Z,18.07
2022-08-23T05:16:01.837Z,18.00
2022-08-23T05:18:28.386Z,18.16
2022-08-23T05:20:54.910Z,18.14
2022-08-23T05:23:23.484Z,18.20
2022-08-23T05:25:59.187Z,18.25
2022-08-23T05:28:30.309Z,18.48
2022-08-23T05:31:32.223Z,18.47
2022-08-23T05:33:59.117Z,18.62
2022-08-23T05:36:25.636Z,18.71
2022-08-23T05:38:53.392Z,18.89
2022-08-23T05:41:21.104Z,18.93
2022-08-23T05:43:48.339Z,18.95
2022-08-23T05:46:18.433Z,19.09
2022-08-23T05:48:48.457Z,19.23
2022-08-23T05:51:16.526Z,19.42
2022-08-23T05:53:44.365Z,19.64
2022-08-23T05:56:13.635Z,19.93
2022-08-23T05:58:40.545Z,20.10
2022-08-23T06:01:07.115Z,20.33
2022-08-23T06:03:33.662Z,20.55
2022-08-23T06:06:01.609Z,20.82
2022-08-23T06:08:28.566Z,20.95
2022-08-23T06:11:06.625Z,21.19
2022-08-23T06:13:33.981Z,21.23
2022-08-23T06:16:00.499Z,21.44
2022-08-23T06:18:41.103Z,21.73
2022-08-23T06:21:11.273Z,21.92
2022-08-23T06:23:38.461Z,21.95
2022-08-23T06:26:17.179Z,22.13
2022-08-23T06:28:50.882Z,22.62
2022-08-23T06:31:38.829Z,22.83
2022-08-23T06:34:05.457Z,23.09
2022-08-23T06:36:31.993Z,23.20
2022-08-23T06:38:58.460Z,23.51
2022-08-23T06:41:25.074Z,23.75
2022-08-23T06:43:51.788Z,24.13
2022-08-23T06:46:23.450Z,24.20
2022-08-23T06:48:50.976Z,24.42
2022-08-23T06:51:27.654Z,25.02
2022-08-23T06:54:02.871Z,25.27
2022-08-23T06:56:30.049Z,25.58
2022-08-23T06:58:56.967Z,25.90
2022-08-23T07:01:45.090Z,26.09
2022-08-23T07:04:15.897Z,26.54
2022-08-23T07:06:42.567Z,27.03
2022-08-23T07:09:09.081Z,27.41
2022-08-23T07:11:36.784Z,27.48
2022-08-23T07:14:10.493Z,27.72
2022-08-23T07:16:40.854Z,27.93
2022-08-23T07:19:09.093Z,28.67
2022-08-23T07:21:36.696Z,28.74
2022-08-23T07:24:04.022Z,28.30
2022-08-23T07:26:31.405Z,28.40
2022-08-23T07:28:58.013Z,28.85
2022-08-23T07:31:31.746Z,29.00
2022-08-23T07:34:02.475Z,29.58
2022-08-23T07:36:31.664Z,29.94
2022-08-23T07:38:58.766Z,30.27
2022-08-23T07:41:31.112Z,30.90
2022-08-23T07:44:02.393Z,31.23
2022-08-23T07:46:31.088Z,31.33
2022-08-23T07:48:58.273Z,32.26
2022-08-23T07:51:25.857Z,32.63
2022-08-23T07:53:52.354Z,31.60
2022-08-23T07:56:20.870Z,31.89
2022-08-23T07:58:47.727Z,32.92
2022-08-23T08:01:16.426Z,32.88
2022-08-23T08:03:44.133Z,33.54
2022-08-23T08:06:13.813Z,32.96
2022-08-23T08:08:41.728Z,33.47
2022-08-23T08:11:10.928Z,33.79
2022-08-23T08:13:39.137Z,34.31
2022-08-23T08:16:06.115Z,34.01
2022-08-23T08:18:32.773Z,34.71
2022-08-23T08:20:59.368Z,34.24
2022-08-23T08:23:25.861Z,35.02
2022-08-23T08:26:02.968Z,34.32
2022-08-23T08:28:29.637Z,34.18
2022-08-23T08:30:56.262Z,32.78
2022-08-23T08:33:22.837Z,34.56
2022-08-23T08:36:00.874Z,34.44
2022-08-23T08:38:30.628Z,34.57
2022-08-23T08:41:34.805Z,35.64
2022-08-23T08:44:19.153Z,36.22
2022-08-23T08:46:51.550Z,36.18
2022-08-23T08:49:32.003Z,36.41
2022-08-23T08:52:32.365Z,37.08
2022-08-23T08:55:23.394Z,36.69
2022-08-23T08:57:53.537Z,37.84
2022-08-23T09:00:25.237Z,38.05
2022-08-23T09:02:52.130Z,38.55
2022-08-23T09:05:29.115Z,38.74
2022-08-23T09:08:24.405Z,36.54
2022-08-23T09:11:18.686Z,38.05
2022-08-23T09:14:16.726Z,38.79
2022-08-23T09:16:53.537Z,37.81
2022-08-23T09:19:22.943Z,39.21
2022-08-23T09:21:58.241Z,39.73
2022-08-23T09:24:26.162Z,41.41
2022-08-23T09:26:56.288Z,40.65
2022-08-23T09:29:32.007Z,41.28
2022-08-23T09:32:20.995Z,38.97
2022-08-23T09:34:47.437Z,39.14
2022-08-23T09:37:23.478Z,39.70
2022-08-23T09:40:16.475Z,41.24
2022-08-23T09:42:44.039Z,41.18
2022-08-23T09:45:28.115Z,40.60
2022-08-23T09:47:55.422Z,42.17
2022-08-23T09:50:29.112Z,41.91
2022-08-23T09:53:00.204Z,42.70
2022-08-23T09:55:32.191Z,42.16
2022-08-23T09:58:00.744Z,42.78
2022-08-23T10:00:32.476Z,42.60
2022-08-23T10:03:28.855Z,42.04
2022-08-23T10:06:00.926Z,43.17
2022-08-23T10:08:32.822Z,42.41
2022-08-23T10:11:05.390Z,42.55
2022-08-23T10:13:35.972Z,43.07
2022-08-23T10:16:29.066Z,39.04
2022-08-23T10:19:03.473Z,40.92
2022-08-23T10:21:54.417Z,41.18
2022-08-23T10:25:02.645Z,43.03
2022-08-23T10:28:12.549Z,42.53
2022-08-23T10:30:45.800Z,42.41
2022-08-23T10:34:02.163Z,43.46
2022-08-23T10:36:34.038Z,41.69
2022-08-23T10:39:21.414Z,43.26
2022-08-23T10:42:13.936Z,43.18
2022-08-23T10:44:55.556Z,43.01
2022-08-23T10:47:23.073Z,43.71
2022-08-23T10:49:52.550Z,44.28
2022-08-23T10:53:04.003Z,43.75
2022-08-23T10:56:02.850Z,42.48
2022-08-23T10:58:38.777Z,43.52
2022-08-23T11:01:07.855Z,43.75
2022-08-23T11:04:20.733Z,42.92
2022-08-23T11:06:54.632Z,42.15
2022-08-23T11:09:21.174Z,43.76
2022-08-23T11:12:19.498Z,42.77
2022-08-23T11:14:58.070Z,41.86
2022-08-23T11:17:27.067Z,40.41
2022-08-23T11:20:14.642Z,41.17
2022-08-23T11:23:00.065Z,42.00
2022-08-23T11:25:26.438Z,43.29
2022-08-23T11:28:20.585Z,42.78
2022-08-23T11:30:59.952Z,42.85
2022-08-23T11:33:36.946Z,43.89
2022-08-23T11:36:09.402Z,44.40
2022-08-23T11:38:48.153Z,42.95
2022-08-23T11:41:14.617Z,43.96
2022-08-23T11:43:43.894Z,43.46
2022-08-23T11:46:25.603Z,44.79
2022-08-23T11:49:29.766Z,44.91
2022-08-23T11:52:21.478Z,44.95
2022-08-23T11:55:21.830Z,45.13
2022-08-23T11:58:02.577Z,43.09
2022-08-23T12:00:57.453Z,43.80
2022-08-23T12:03:32.467Z,42.01
2022-08-23T12:06:39.279Z,41.91
2022-08-23T12:09:25.353Z,43.09
2022-08-23T12:11:54.844Z,42.76
2022-08-23T12:14:30.587Z,42.52
2022-08-23T12:17:04.350Z,42.97
2022-08-23T12:19:48.921Z,43.14
2022-08-23T12:22:19.647Z,42.18
2022-08-23T12:24:52.758Z,38.62
2022-08-23T12:27:42.246Z,39.85
2022-08-23T12:30:26.737Z,41.01
2022-08-23T12:33:28.566Z,40.58
2022-08-23T12:35:54.991Z,41.09
2022-08-23T12:38:27.201Z,40.92
2022-08-23T12:40:54.846Z,40.87
2022-08-23T12:43:22.446Z,41.02
2022-08-23T12:45:52.925Z,39.12
2022-08-23T12:48:23.027Z,40.49
2022-08-23T12:51:12.000Z,40.76
2022-08-23T12:53:45.047Z,40.36
2022-08-23T12:56:31.453Z,40.63
2022-08-23T12:59:04.883Z,40.59
2022-08-23T13:01:35.804Z,40.57
2022-08-23T13:04:12.131Z,41.69
2022-08-23T13:06:46.285Z,42.12
2022-08-23T13:09:18.917Z,42.07
2022-08-23T13:11:46.194Z,41.20
2022-08-23T13:14:44.190Z,42.37
2022-08-23T13:17:36.682Z,41.86
2022-08-23T13:20:04.048Z,41.44
2022-08-23T13:22:31.959Z,40.88
2022-08-23T13:27:57.786Z,39.93
2022-08-23T13:30:30.653Z,39.90
2022-08-23T13:33:07.693Z,40.04
2022-08-23T13:35:37.874Z,40.74
2022-08-23T13:38:18.302Z,39.86
2022-08-23T13:41:03.352Z,38.77
2022-08-23T13:43:39.333Z,39.35
2022-08-23T13:46:17.867Z,39.92
2022-08-23T13:48:57.233Z,39.19
2022-08-23T13:51:26.737Z,39.52
2022-08-23T13:53:56.163Z,39.94
2022-08-23T13:56:23.371Z,39.88
2022-08-23T13:58:56.441Z,39.22
2022-08-23T14:01:23.690Z,38.59
2022-08-23T14:03:50.314Z,38.33
2022-08-23T14:06:16.919Z,38.59
2022-08-23T14:08:43.557Z,38.78
2022-08-23T14:11:11.892Z,38.57
2022-08-23T14:13:38.694Z,38.45
2022-08-23T14:21:41.158Z,39.03
2022-08-23T14:24:07.687Z,37.32
2022-08-23T14:26:35.039Z,36.97
2022-08-23T14:29:01.533Z,37.75
2022-08-23T14:31:28.066Z,37.23
2022-08-23T14:33:58.815Z,36.51
2022-08-23T14:36:29.919Z,37.18
2022-08-23T14:38:56.770Z,36.74
2022-08-23T14:41:26.487Z,36.51
2022-08-23T14:43:53.981Z,35.78
2022-08-23T14:46:21.983Z,35.67
2022-08-23T14:48:48.536Z,36.22
2022-08-23T14:51:32.582Z,36.27
2022-08-23T14:54:00.128Z,35.63
2022-08-23T14:56:27.060Z,35.76
2022-08-23T14:58:53.514Z,35.04
2022-08-23T15:01:20.930Z,34.81
2022-08-23T15:03:47.718Z,34.56
2022-08-23T15:06:15.960Z,34.61
2022-08-23T15:08:43.550Z,34.05
2022-08-23T15:14:00.412Z,33.19
2022-08-23T15:16:27.816Z,32.77
2022-08-23T15:18:55.467Z,32.37
2022-08-23T15:21:22.356Z,32.27
2022-08-23T15:23:49.547Z,32.40
2022-08-23T15:26:20.073Z,32.47
2022-08-23T15:28:46.696Z,32.67
2022-08-23T15:31:16.014Z,32.01
2022-08-23T15:33:42.660Z,31.92
2022-08-23T15:36:11.737Z,31.90
2022-08-23T15:38:38.688Z,31.97
2022-08-23T15:41:05.930Z,31.60
2022-08-23T15:43:34.345Z,31.46
2022-08-23T15:46:07.567Z,31.56
2022-08-23T15:48:41.721Z,31.53
2022-08-23T15:51:09.810Z,31.43
2022-08-23T15:53:40.328Z,31.38
2022-08-23T15:56:13.683Z,31.02
2022-08-23T15:58:40.321Z,31.05
2022-08-23T16:01:07.023Z,30.93
2022-08-23T16:03:33.913Z,30.76
2022-08-23T16:06:01.841Z,30.77
2022-08-23T16:08:32.381Z,30.58
2022-08-23T16:10:59.349Z,30.48
2022-08-23T16:13:26.753Z,30.40
2022-08-23T16:15:53.418Z,30.38
2022-08-23T16:18:19.969Z,30.36
2022-08-23T16:20:46.502Z,30.24
2022-08-23T16:23:13.504Z,30.07
2022-08-23T16:25:40.883Z,30.12
2022-08-23T16:28:07.981Z,29.79
2022-08-23T16:30:35.253Z,29.80
2022-08-23T16:33:02.075Z,29.92
2022-08-23T16:35:28.729Z,29.87
2022-08-23T16:37:55.334Z,29.64
2022-08-23T16:40:22.657Z,29.57
2022-08-23T16:42:49.340Z,29.53
2022-08-23T16:45:15.898Z,29.41
2022-08-23T16:47:44.838Z,29.42
2022-08-23T16:50:13.170Z,29.42
2022-08-23T16:52:39.762Z,29.50
2022-08-23T16:55:09.758Z,29.41
2022-08-23T16:57:36.774Z,29.40
2022-08-23T17:00:06.945Z,29.39
2022-08-23T17:02:36.483Z,29.31
2022-08-23T17:05:05.751Z,29.35
2022-08-23T17:07:32.505Z,29.29
2022-08-23T17:09:58.975Z,29.30
2022-08-23T17:12:25.909Z,29.31
2022-08-23T17:14:52.501Z,29.32
2022-08-23T17:17:19.037Z,29.30
2022-08-23T17:19:45.909Z,29.21
2022-08-23T17:22:12.523Z,28.99
2022-08-23T17:24:39.387Z,28.92
2022-08-23T17:27:06.353Z,28.83
2022-08-23T17:29:34.637Z,28.71
2022-08-23T17:32:04.269Z,28.76
2022-08-23T17:34:30.789Z,28.83
2022-08-23T17:36:57.246Z,28.73
2022-08-23T17:39:28.302Z,28.71
2022-08-23T17:41:58.267Z,28.70
2022-08-23T17:44:25.076Z,28.54
2022-08-23T17:46:51.778Z,28.35
2022-08-23T17:49:19.183Z,28.37
2022-08-23T17:51:45.729Z,28.36
2022-08-23T17:54:16.038Z,28.32
2022-08-23T17:56:49.876Z,28.33
2022-08-23T17:59:18.383Z,28.31
2022-08-23T18:01:44.865Z,28.22
2022-08-23T18:04:11.733Z,27.99
2022-08-23T18:06:38.625Z,28.06
2022-08-23T18:09:06.906Z,28.04
2022-08-23T18:11:34.925Z,27.88
2022-08-23T18:14:02.108Z,27.85
2022-08-23T18:16:34.449Z,27.75
2022-08-23T18:19:03.337Z,27.70
2022-08-23T18:21:30.963Z,27.53
2022-08-23T18:23:58.280Z,27.34
2022-08-23T18:26:43.507Z,27.15
2022-08-23T18:29:12.293Z,27.06
2022-08-23T18:31:41.592Z,27.02
2022-08-23T18:34:09.269Z,27.03
2022-08-23T18:36:36.295Z,26.97
2022-08-23T18:39:04.366Z,26.80
2022-08-23T18:41:33.972Z,26.84
2022-08-23T18:44:05.478Z,26.71
2022-08-23T18:46:37.853Z,26.55
2022-08-23T18:49:05.795Z,26.43
2022-08-23T18:51:36.776Z,26.37
2022-08-23T18:54:04.229Z,26.34
2022-08-23T18:56:30.828Z,26.34
2022-08-23T18:58:57.577Z,26.16
2022-08-23T19:01:30.876Z,26.05
2022-08-23T19:04:02.970Z,25.84
2022-08-23T19:06:29.644Z,25.83
2022-08-23T19:08:56.504Z,25.78
2022-08-23T19:11:24.394Z,25.80
2022-08-23T19:13:51.192Z,25.71
2022-08-23T19:16:18.784Z,25.59
2022-08-23T19:18:46.595Z,25.64
2022-08-23T19:21:15.566Z,25.53
2022-08-23T19:23:42.406Z,25.42
2022-08-23T19:26:10.695Z,25.37
2022-08-23T19:28:37.764Z,25.26
2022-08-23T19:31:05.342Z,25.29
2022-08-23T19:33:32.289Z,25.18
2022-08-23T19:35:59.032Z,25.22
2022-08-23T19:38:27.742Z,25.10
2022-08-23T19:40:55.661Z,25.01
2022-08-23T19:43:22.828Z,24.81
2022-08-23T19:45:49.433Z,24.61
2022-08-23T19:48:15.981Z,24.40
2022-08-23T19:50:42.926Z,24.44
2022-08-23T19:53:09.789Z,24.43
2022-08-23T19:55:41.711Z,24.48
2022-08-23T19:58:08.737Z,24.44
2022-08-23T20:00:35.963Z,24.38
2022-08-23T20:03:03.070Z,24.40
2022-08-23T20:05:30.223Z,24.32
2022-08-23T20:07:56.855Z,24.30
2022-08-23T20:10:23.733Z,24.29
2022-08-23T20:12:50.259Z,24.21
2022-08-23T20:15:16.749Z,24.18
2022-08-23T20:17:43.374Z,24.14
2022-08-23T20:20:13.725Z,24.27
2022-08-23T20:23:00.112Z,24.21
2022-08-23T20:25:26.653Z,24.27
2022-08-23T20:27:53.154Z,24.33
2022-08-23T20:30:19.768Z,24.27
2022-08-23T20:32:46.285Z,24.14
2022-08-23T20:35:12.964Z,24.34
2022-08-23T20:37:39.738Z,24.25
2022-08-23T20:40:10.140Z,24.12
2022-08-23T20:42:38.087Z,24.01
2022-08-23T20:45:05.682Z,23.99
2022-08-23T20:47:32.711Z,23.96
2022-08-23T20:49:59.255Z,23.85
2022-08-23T20:52:25.703Z,23.89
2022-08-23T20:54:53.447Z,23.78
2022-08-23T20:57:19.990Z,23.75
2022-08-23T20:59:46.533Z,23.72
2022-08-23T21:02:13.362Z,23.72
2022-08-23T21:04:40.306Z,23.56
2022-08-23T21:07:08.423Z,23.62
2022-08-23T21:09:35.122Z,23.63
2022-08-23T21:12:01.585Z,23.53
2022-08-23T21:14:28.156Z,23.37
2022-08-23T21:16:54.630Z,23.45
2022-08-23T21:19:21.313Z,23.42
2022-08-23T21:21:48.578Z,23.47
2022-08-23T21:24:15.536Z,23.33
2022-08-23T21:26:42.038Z,23.35
2022-08-23T21:29:09.761Z,23.33
2022-08-23T21:31:37.139Z,23.24
2022-08-23T21:34:03.885Z,23.15
2022-08-23T21:36:30.759Z,23.01
2022-08-23T21:38:57.262Z,22.95
2022-08-23T21:41:44.854Z,22.93
2022-08-23T21:44:14.966Z,22.94
2022-08-23T21:46:41.709Z,22.93
2022-08-23T21:49:08.486Z,22.77
2022-08-23T21:51:38.925Z,22.68
2022-08-23T21:54:06.920Z,22.62
2022-08-23T21:56:33.420Z,22.58
2022-08-23T21:59:01.996Z,22.56
2022-08-23T22:01:30.708Z,22.54
2022-08-23T22:03:57.440Z,22.42
2022-08-23T22:06:24.141Z,22.38
2022-08-23T22:08:50.612Z,22.33
2022-08-23T22:11:17.110Z,22.18
2022-08-23T22:13:43.665Z,22.10
2022-08-23T22:16:10.350Z,22.04
2022-08-23T22:18:36.875Z,22.07
2022-08-23T22:21:04.376Z,22.12
2022-08-23T22:23:31.850Z,22.10
2022-08-23T22:26:05.755Z,21.97
2022-08-23T22:28:33.769Z,22.08
2022-08-23T22:31:02.195Z,22.08
2022-08-23T22:33:28.920Z,21.85
2022-08-23T22:36:01.092Z,21.85
2022-08-23T22:38:27.550Z,21.84
2022-08-23T22:40:54.030Z,21.93
2022-08-23T22:43:20.729Z,21.91
2022-08-23T22:45:58.797Z,21.83
2022-08-23T22:48:29.204Z,21.75
2022-08-23T22:51:07.867Z,21.76
2022-08-23T22:53:36.641Z,21.72
2022-08-23T22:56:04.890Z,21.71
2022-08-23T22:58:31.781Z,21.70
2022-08-23T23:00:58.286Z,21.70
2022-08-23T23:03:24.854Z,21.70
2022-08-23T23:05:51.336Z,21.62
2022-08-23T23:08:29.946Z,21.55
2022-08-23T23:11:06.126Z,21.45
2022-08-23T23:13:33.240Z,21.47
2022-08-23T23:16:03.716Z,21.45
2022-08-23T23:18:30.182Z,21.30
2022-08-23T23:21:01.825Z,21.24
2022-08-23T23:23:30.781Z,21.24
2022-08-23T23:25:57.654Z,21.20
2022-08-23T23:28:24.533Z,21.24
2022-08-23T23:30:53.128Z,21.29
2022-08-23T23:33:21.753Z,21.22
2022-08-23T23:35:48.891Z,21.24
2022-08-23T23:38:15.967Z,21.32
2022-08-23T23:40:43.623Z,21.06
2022-08-23T23:43:11.892Z,21.19
2022-08-23T23:45:40.987Z,21.26
2022-08-23T23:48:08.591Z,21.30
2022-08-23T23:50:36.594Z,21.14
2022-08-23T23:53:04.182Z,21.17
2022-08-23T23:55:30.722Z,21.18
2022-08-23T23:57:57.207Z,21.16
